sensor_id;sensor_type;location;lat;lon;timestamp;P1;durP1;ratioP1;P2;durP2;ratioP2
64868;SDS011;51349;52.424;10.840;2023-09-18T00:00:19;5.38;;;5.00;;
64868;SDS011;51349;52.424;10.840;2023-09-18T00:05:21;8.43;;;5.53;;
64868;SDS011;51349;52.424;10.840;2023-09-18T00:10:22;5.90;;;5.40;;
64868;SDS011;51349;52.424;10.840;2023-09-18T00:15:23;5.40;;;5.00;;
64868;SDS011;51349;52.424;10.840;2023-09-18T00:20:24;5.60;;;5.10;;
64868;SDS011;51349;52.424;10.840;2023-09-18T00:25:28;6.00;;;5.55;;
64868;SDS011;51349;52.424;10.840;2023-09-18T00:30:30;5.32;;;5.00;;
64868;SDS011;51349;52.424;10.840;2023-09-18T00:35:31;5.30;;;4.82;;
64868;SDS011;51349;52.424;10.840;2023-09-18T00:40:32;5.63;;;5.22;;
64868;SDS011;51349;52.424;10.840;2023-09-18T00:45:32;5.70;;;5.30;;
64868;SDS011;51349;52.424;10.840;2023-09-18T00:50:34;6.00;;;5.22;;
64868;SDS011;51349;52.424;10.840;2023-09-18T00:55:36;5.68;;;5.28;;
64868;SDS011;51349;52.424;10.840;2023-09-18T01:00:38;5.35;;;4.95;;
64868;SDS011;51349;52.424;10.840;2023-09-18T01:05:40;5.40;;;5.00;;
64868;SDS011;51349;52.424;10.840;2023-09-18T01:10:48;8.27;;;5.72;;
64868;SDS011;51349;52.424;10.840;2023-09-18T01:16:25;6.05;;;5.50;;
64868;SDS011;51349;52.424;10.840;2023-09-18T01:21:37;5.70;;;5.30;;
64868;SDS011;51349;52.424;10.840;2023-09-18T01:26:38;5.70;;;5.30;;
64868;SDS011;51349;52.424;10.840;2023-09-18T01:31:39;6.93;;;5.68;;
64868;SDS011;51349;52.424;10.840;2023-09-18T01:36:39;5.55;;;5.18;;
64868;SDS011;51349;52.424;10.840;2023-09-18T01:41:40;5.80;;;5.40;;
64868;SDS011;51349;52.424;10.840;2023-09-18T01:46:41;5.90;;;5.40;;
64868;SDS011;51349;52.424;10.840;2023-09-18T01:51:43;5.78;;;5.28;;
64868;SDS011;51349;52.424;10.840;2023-09-18T01:56:43;5.90;;;5.43;;
64868;SDS011;51349;52.424;10.840;2023-09-18T02:01:44;6.50;;;5.20;;
64868;SDS011;51349;52.424;10.840;2023-09-18T02:06:46;6.35;;;5.40;;
64868;SDS011;51349;52.424;10.840;2023-09-18T02:11:47;6.03;;;5.53;;
64868;SDS011;51349;52.424;10.840;2023-09-18T02:16:48;5.75;;;5.35;;
64868;SDS011;51349;52.424;10.840;2023-09-18T02:21:49;5.85;;;5.45;;
64868;SDS011;51349;52.424;10.840;2023-09-18T02:26:50;6.47;;;5.95;;
64868;SDS011;51349;52.424;10.840;2023-09-18T02:31:51;6.20;;;5.70;;
64868;SDS011;51349;52.424;10.840;2023-09-18T02:36:51;6.00;;;5.45;;
64868;SDS011;51349;52.424;10.840;2023-09-18T02:41:52;5.90;;;5.45;;
64868;SDS011;51349;52.424;10.840;2023-09-18T02:46:53;6.13;;;5.63;;
64868;SDS011;51349;52.424;10.840;2023-09-18T02:51:53;5.75;;;5.35;;
64868;SDS011;51349;52.424;10.840;2023-09-18T02:56:54;5.63;;;5.25;;
64868;SDS011;51349;52.424;10.840;2023-09-18T03:01:55;5.85;;;5.45;;
64868;SDS011;51349;52.424;10.840;2023-09-18T03:06:55;6.47;;;5.90;;
64868;SDS011;51349;52.424;10.840;2023-09-18T03:11:56;5.97;;;5.57;;
64868;SDS011;51349;52.424;10.840;2023-09-18T03:16:56;6.57;;;5.93;;
64868;SDS011;51349;52.424;10.840;2023-09-18T03:21:57;6.47;;;5.80;;
64868;SDS011;51349;52.424;10.840;2023-09-18T03:26:58;6.50;;;6.00;;
64868;SDS011;51349;52.424;10.840;2023-09-18T03:31:58;6.32;;;5.88;;
64868;SDS011;51349;52.424;10.840;2023-09-18T03:36:59;6.50;;;5.90;;
64868;SDS011;51349;52.424;10.840;2023-09-18T03:42:00;6.10;;;5.70;;
64868;SDS011;51349;52.424;10.840;2023-09-18T03:47:00;5.97;;;5.40;;
64868;SDS011;51349;52.424;10.840;2023-09-18T03:52:01;6.65;;;6.05;;
64868;SDS011;51349;52.424;10.840;2023-09-18T03:57:02;5.80;;;5.30;;
64868;SDS011;51349;52.424;10.840;2023-09-18T04:02:03;5.93;;;5.43;;
64868;SDS011;51349;52.424;10.840;2023-09-18T04:07:07;5.45;;;5.05;;
64868;SDS011;51349;52.424;10.840;2023-09-18T04:12:08;5.40;;;5.10;;
64868;SDS011;51349;52.424;10.840;2023-09-18T04:17:09;6.53;;;5.97;;
64868;SDS011;51349;52.424;10.840;2023-09-18T04:22:10;9.70;;;8.80;;
64868;SDS011;51349;52.424;10.840;2023-09-18T04:27:11;8.73;;;7.82;;
64868;SDS011;51349;52.424;10.840;2023-09-18T04:32:11;7.63;;;7.03;;
64868;SDS011;51349;52.424;10.840;2023-09-18T04:37:12;6.32;;;5.80;;
64868;SDS011;51349;52.424;10.840;2023-09-18T04:42:12;6.88;;;5.72;;
64868;SDS011;51349;52.424;10.840;2023-09-18T04:47:13;5.50;;;5.07;;
64868;SDS011;51349;52.424;10.840;2023-09-18T04:52:14;6.22;;;5.65;;
64868;SDS011;51349;52.424;10.840;2023-09-18T04:57:14;5.65;;;5.22;;
64868;SDS011;51349;52.424;10.840;2023-09-18T05:02:15;6.70;;;5.97;;
64868;SDS011;51349;52.424;10.840;2023-09-18T05:07:16;6.50;;;5.70;;
64868;SDS011;51349;52.424;10.840;2023-09-18T05:12:17;6.10;;;5.60;;
64868;SDS011;51349;52.424;10.840;2023-09-18T05:17:18;6.93;;;6.20;;
64868;SDS011;51349;52.424;10.840;2023-09-18T05:22:18;6.40;;;5.80;;
64868;SDS011;51349;52.424;10.840;2023-09-18T05:27:19;6.20;;;5.70;;
64868;SDS011;51349;52.424;10.840;2023-09-18T05:32:20;6.68;;;6.13;;
64868;SDS011;51349;52.424;10.840;2023-09-18T05:37:20;5.75;;;5.30;;
64868;SDS011;51349;52.424;10.840;2023-09-18T05:42:21;5.78;;;5.28;;
64868;SDS011;51349;52.424;10.840;2023-09-18T05:47:22;7.78;;;6.07;;
64868;SDS011;51349;52.424;10.840;2023-09-18T05:52:23;10.15;;;6.00;;
64868;SDS011;51349;52.424;10.840;2023-09-18T05:57:25;7.10;;;6.00;;
64868;SDS011;51349;52.424;10.840;2023-09-18T06:02:27;6.55;;;5.93;;
64868;SDS011;51349;52.424;10.840;2023-09-18T06:07:28;7.75;;;5.40;;
64868;SDS011;51349;52.424;10.840;2023-09-18T06:12:29;13.13;;;5.75;;
64868;SDS011;51349;52.424;10.840;2023-09-18T06:17:30;7.95;;;6.18;;
64868;SDS011;51349;52.424;10.840;2023-09-18T06:22:31;6.07;;;5.55;;
64868;SDS011;51349;52.424;10.840;2023-09-18T06:27:34;6.28;;;5.72;;
64868;SDS011;51349;52.424;10.840;2023-09-18T06:32:36;6.68;;;6.18;;
64868;SDS011;51349;52.424;10.840;2023-09-18T06:37:37;6.13;;;5.63;;
64868;SDS011;51349;52.424;10.840;2023-09-18T06:42:38;6.22;;;5.72;;
64868;SDS011;51349;52.424;10.840;2023-09-18T06:47:39;6.20;;;5.70;;
64868;SDS011;51349;52.424;10.840;2023-09-18T06:52:40;6.57;;;6.00;;
64868;SDS011;51349;52.424;10.840;2023-09-18T06:57:41;6.43;;;5.82;;
64868;SDS011;51349;52.424;10.840;2023-09-18T07:02:42;5.32;;;4.93;;
64868;SDS011;51349;52.424;10.840;2023-09-18T07:07:43;5.80;;;5.40;;
64868;SDS011;51349;52.424;10.840;2023-09-18T07:12:44;6.00;;;5.50;;
64868;SDS011;51349;52.424;10.840;2023-09-18T07:17:44;4.90;;;4.55;;
64868;SDS011;51349;52.424;10.840;2023-09-18T07:22:46;5.38;;;4.88;;
64868;SDS011;51349;52.424;10.840;2023-09-18T07:27:47;5.22;;;4.75;;
64868;SDS011;51349;52.424;10.840;2023-09-18T07:32:48;5.35;;;4.95;;
64868;SDS011;51349;52.424;10.840;2023-09-18T07:37:49;4.90;;;4.50;;
64868;SDS011;51349;52.424;10.840;2023-09-18T07:42:49;5.70;;;5.30;;
64868;SDS011;51349;52.424;10.840;2023-09-18T07:47:50;5.57;;;5.20;;
64868;SDS011;51349;52.424;10.840;2023-09-18T07:52:51;5.30;;;4.90;;
64868;SDS011;51349;52.424;10.840;2023-09-18T07:57:51;5.30;;;4.90;;
64868;SDS011;51349;52.424;10.840;2023-09-18T08:02:54;7.95;;;7.22;;
64868;SDS011;51349;52.424;10.840;2023-09-18T08:08:00;5.65;;;5.25;;
64868;SDS011;51349;52.424;10.840;2023-09-18T08:13:04;6.22;;;5.68;;
64868;SDS011;51349;52.424;10.840;2023-09-18T08:18:05;5.47;;;5.07;;
64868;SDS011;51349;52.424;10.840;2023-09-18T08:23:06;7.60;;;5.85;;
64868;SDS011;51349;52.424;10.840;2023-09-18T08:28:07;7.13;;;6.53;;
64868;SDS011;51349;52.424;10.840;2023-09-18T08:33:08;8.05;;;6.13;;
64868;SDS011;51349;52.424;10.840;2023-09-18T08:38:09;5.40;;;4.93;;
64868;SDS011;51349;52.424;10.840;2023-09-18T08:43:10;5.40;;;5.00;;
64868;SDS011;51349;52.424;10.840;2023-09-18T08:48:13;5.30;;;4.90;;
64868;SDS011;51349;52.424;10.840;2023-09-18T08:53:15;4.75;;;4.35;;
64868;SDS011;51349;52.424;10.840;2023-09-18T08:58:15;6.95;;;5.50;;
64868;SDS011;51349;52.424;10.840;2023-09-18T09:03:19;5.03;;;4.60;;
64868;SDS011;51349;52.424;10.840;2023-09-18T09:08:20;4.72;;;4.43;;
64868;SDS011;51349;52.424;10.840;2023-09-18T09:13:21;7.30;;;4.70;;
64868;SDS011;51349;52.424;10.840;2023-09-18T09:18:27;4.60;;;4.30;;
64868;SDS011;51349;52.424;10.840;2023-09-18T09:23:29;4.47;;;4.00;;
64868;SDS011;51349;52.424;10.840;2023-09-18T09:28:45;6.00;;;4.45;;
64868;SDS011;51349;52.424;10.840;2023-09-18T09:33:51;5.68;;;4.38;;
64868;SDS011;51349;52.424;10.840;2023-09-18T09:38:56;5.05;;;4.55;;
64868;SDS011;51349;52.424;10.840;2023-09-18T09:43:58;5.00;;;4.22;;
64868;SDS011;51349;52.424;10.840;2023-09-18T09:49:04;4.72;;;4.38;;
64868;SDS011;51349;52.424;10.840;2023-09-18T09:54:05;6.40;;;4.50;;
64868;SDS011;51349;52.424;10.840;2023-09-18T09:59:08;5.35;;;4.18;;
64868;SDS011;51349;52.424;10.840;2023-09-18T10:04:09;7.57;;;4.30;;
64868;SDS011;51349;52.424;10.840;2023-09-18T10:09:13;5.10;;;4.60;;
64868;SDS011;51349;52.424;10.840;2023-09-18T10:14:19;3.95;;;3.65;;
64868;SDS011;51349;52.424;10.840;2023-09-18T10:19:34;6.38;;;3.47;;
64868;SDS011;51349;52.424;10.840;2023-09-18T10:24:43;3.67;;;3.30;;
64868;SDS011;51349;52.424;10.840;2023-09-18T10:29:48;3.42;;;3.05;;
64868;SDS011;51349;52.424;10.840;2023-09-18T10:34:51;4.43;;;2.90;;
64868;SDS011;51349;52.424;10.840;2023-09-18T10:39:52;4.88;;;3.13;;
64868;SDS011;51349;52.424;10.840;2023-09-18T10:44:55;6.57;;;3.33;;
64868;SDS011;51349;52.424;10.840;2023-09-18T10:49:55;5.53;;;3.10;;
64868;SDS011;51349;52.424;10.840;2023-09-18T10:54:56;4.28;;;2.67;;
64868;SDS011;51349;52.424;10.840;2023-09-18T10:59:57;4.88;;;3.05;;
64868;SDS011;51349;52.424;10.840;2023-09-18T11:04:58;7.47;;;3.03;;
64868;SDS011;51349;52.424;10.840;2023-09-18T11:09:59;5.47;;;2.75;;
64868;SDS011;51349;52.424;10.840;2023-09-18T11:15:26;5.65;;;2.97;;
64868;SDS011;51349;52.424;10.840;2023-09-18T11:20:32;5.43;;;3.05;;
64868;SDS011;51349;52.424;10.840;2023-09-18T11:30:50;4.32;;;2.90;;
64868;SDS011;51349;52.424;10.840;2023-09-18T11:36:14;6.80;;;2.70;;
64868;SDS011;51349;52.424;10.840;2023-09-18T11:41:32;4.05;;;2.60;;
64868;SDS011;51349;52.424;10.840;2023-09-18T11:46:37;4.90;;;2.70;;
64868;SDS011;51349;52.424;10.840;2023-09-18T11:51:40;4.68;;;2.65;;
64868;SDS011;51349;52.424;10.840;2023-09-18T11:56:41;8.00;;;3.13;;
64868;SDS011;51349;52.424;10.840;2023-09-18T12:01:42;6.45;;;2.40;;
64868;SDS011;51349;52.424;10.840;2023-09-18T12:06:46;5.20;;;2.63;;
64868;SDS011;51349;52.424;10.840;2023-09-18T12:11:47;6.00;;;2.63;;
64868;SDS011;51349;52.424;10.840;2023-09-18T12:16:49;4.15;;;2.70;;
64868;SDS011;51349;52.424;10.840;2023-09-18T12:21:50;4.47;;;3.00;;
64868;SDS011;51349;52.424;10.840;2023-09-18T12:26:51;5.45;;;2.50;;
64868;SDS011;51349;52.424;10.840;2023-09-18T12:31:52;6.65;;;2.85;;
64868;SDS011;51349;52.424;10.840;2023-09-18T12:36:53;6.38;;;2.72;;
64868;SDS011;51349;52.424;10.840;2023-09-18T12:41:54;5.47;;;2.42;;
64868;SDS011;51349;52.424;10.840;2023-09-18T12:46:54;5.03;;;2.40;;
64868;SDS011;51349;52.424;10.840;2023-09-18T12:51:59;3.53;;;2.20;;
64868;SDS011;51349;52.424;10.840;2023-09-18T12:57:00;4.00;;;2.17;;
64868;SDS011;51349;52.424;10.840;2023-09-18T13:02:04;6.97;;;2.42;;
64868;SDS011;51349;52.424;10.840;2023-09-18T13:07:12;3.88;;;3.13;;
64868;SDS011;51349;52.424;10.840;2023-09-18T13:12:13;5.25;;;2.63;;
64868;SDS011;51349;52.424;10.840;2023-09-18T13:17:14;5.80;;;2.38;;
64868;SDS011;51349;52.424;10.840;2023-09-18T13:22:22;5.80;;;2.70;;
64868;SDS011;51349;52.424;10.840;2023-09-18T13:27:26;9.63;;;2.72;;
64868;SDS011;51349;52.424;10.840;2023-09-18T13:32:26;4.65;;;2.40;;
64868;SDS011;51349;52.424;10.840;2023-09-18T13:37:27;4.15;;;2.42;;
64868;SDS011;51349;52.424;10.840;2023-09-18T13:42:29;2.95;;;2.30;;
64868;SDS011;51349;52.424;10.840;2023-09-18T13:47:32;3.92;;;2.30;;
64868;SDS011;51349;52.424;10.840;2023-09-18T13:52:33;6.30;;;2.47;;
64868;SDS011;51349;52.424;10.840;2023-09-18T13:57:35;5.35;;;3.63;;
64868;SDS011;51349;52.424;10.840;2023-09-18T14:02:36;4.47;;;2.33;;
64868;SDS011;51349;52.424;10.840;2023-09-18T14:07:37;5.22;;;2.50;;
64868;SDS011;51349;52.424;10.840;2023-09-18T14:12:43;3.70;;;2.00;;
64868;SDS011;51349;52.424;10.840;2023-09-18T14:17:45;7.05;;;2.40;;
64868;SDS011;51349;52.424;10.840;2023-09-18T14:22:46;5.43;;;2.40;;
64868;SDS011;51349;52.424;10.840;2023-09-18T14:27:49;5.28;;;2.28;;
64868;SDS011;51349;52.424;10.840;2023-09-18T14:32:50;5.70;;;2.30;;
64868;SDS011;51349;52.424;10.840;2023-09-18T14:37:51;3.75;;;2.50;;
64868;SDS011;51349;52.424;10.840;2023-09-18T14:42:51;3.65;;;2.40;;
64868;SDS011;51349;52.424;10.840;2023-09-18T14:47:52;3.33;;;2.13;;
64868;SDS011;51349;52.424;10.840;2023-09-18T14:52:53;4.07;;;2.20;;
64868;SDS011;51349;52.424;10.840;2023-09-18T14:57:53;4.13;;;2.60;;
64868;SDS011;51349;52.424;10.840;2023-09-18T15:02:54;5.20;;;2.00;;
64868;SDS011;51349;52.424;10.840;2023-09-18T15:07:55;4.35;;;2.08;;
64868;SDS011;51349;52.424;10.840;2023-09-18T15:12:55;3.45;;;2.15;;
64868;SDS011;51349;52.424;10.840;2023-09-18T15:17:56;3.70;;;2.00;;
64868;SDS011;51349;52.424;10.840;2023-09-18T15:22:57;2.58;;;1.77;;
64868;SDS011;51349;52.424;10.840;2023-09-18T15:27:58;1.80;;;1.70;;
64868;SDS011;51349;52.424;10.840;2023-09-18T15:32:59;3.20;;;2.00;;
64868;SDS011;51349;52.424;10.840;2023-09-18T15:37:59;2.28;;;1.88;;
64868;SDS011;51349;52.424;10.840;2023-09-18T15:43:01;3.53;;;1.90;;
64868;SDS011;51349;52.424;10.840;2023-09-18T15:48:02;4.75;;;1.85;;
64868;SDS011;51349;52.424;10.840;2023-09-18T15:53:04;2.95;;;1.85;;
64868;SDS011;51349;52.424;10.840;2023-09-18T15:58:05;2.33;;;1.67;;
64868;SDS011;51349;52.424;10.840;2023-09-18T16:03:07;4.25;;;1.70;;
64868;SDS011;51349;52.424;10.840;2023-09-18T16:08:08;2.47;;;1.67;;
64868;SDS011;51349;52.424;10.840;2023-09-18T16:13:08;6.18;;;2.08;;
64868;SDS011;51349;52.424;10.840;2023-09-18T16:18:09;3.83;;;1.90;;
64868;SDS011;51349;52.424;10.840;2023-09-18T16:23:10;24.35;;;2.40;;
64868;SDS011;51349;52.424;10.840;2023-09-18T16:28:11;8.43;;;1.83;;
64868;SDS011;51349;52.424;10.840;2023-09-18T16:33:12;3.72;;;1.70;;
64868;SDS011;51349;52.424;10.840;2023-09-18T16:38:13;10.75;;;2.10;;
64868;SDS011;51349;52.424;10.840;2023-09-18T16:43:13;3.35;;;1.88;;
64868;SDS011;51349;52.424;10.840;2023-09-18T16:48:14;5.57;;;2.20;;
64868;SDS011;51349;52.424;10.840;2023-09-18T16:53:15;4.10;;;1.90;;
64868;SDS011;51349;52.424;10.840;2023-09-18T16:58:15;5.65;;;2.03;;
64868;SDS011;51349;52.424;10.840;2023-09-18T17:03:16;2.95;;;1.75;;
64868;SDS011;51349;52.424;10.840;2023-09-18T17:08:16;2.28;;;1.98;;
64868;SDS011;51349;52.424;10.840;2023-09-18T17:13:18;2.22;;;1.98;;
64868;SDS011;51349;52.424;10.840;2023-09-18T17:18:19;3.28;;;1.80;;
64868;SDS011;51349;52.424;10.840;2023-09-18T17:23:19;1.88;;;1.77;;
64868;SDS011;51349;52.424;10.840;2023-09-18T17:28:20;3.63;;;2.10;;
64868;SDS011;51349;52.424;10.840;2023-09-18T17:33:21;3.92;;;2.03;;
64868;SDS011;51349;52.424;10.840;2023-09-18T17:38:22;3.42;;;2.20;;
64868;SDS011;51349;52.424;10.840;2023-09-18T17:43:23;5.35;;;3.08;;
64868;SDS011;51349;52.424;10.840;2023-09-18T17:48:24;2.15;;;1.90;;
64868;SDS011;51349;52.424;10.840;2023-09-18T17:53:25;4.07;;;2.35;;
64868;SDS011;51349;52.424;10.840;2023-09-18T17:58:25;2.97;;;2.03;;
64868;SDS011;51349;52.424;10.840;2023-09-18T18:03:26;4.50;;;1.95;;
64868;SDS011;51349;52.424;10.840;2023-09-18T18:08:27;3.55;;;2.10;;
64868;SDS011;51349;52.424;10.840;2023-09-18T18:13:28;2.25;;;2.05;;
64868;SDS011;51349;52.424;10.840;2023-09-18T18:18:28;3.83;;;2.10;;
64868;SDS011;51349;52.424;10.840;2023-09-18T18:23:29;6.80;;;2.22;;
64868;SDS011;51349;52.424;10.840;2023-09-18T18:28:30;5.15;;;2.35;;
64868;SDS011;51349;52.424;10.840;2023-09-18T18:33:31;2.83;;;2.63;;
64868;SDS011;51349;52.424;10.840;2023-09-18T18:38:32;3.55;;;2.22;;
64868;SDS011;51349;52.424;10.840;2023-09-18T18:43:33;3.97;;;2.00;;
64868;SDS011;51349;52.424;10.840;2023-09-18T18:48:35;4.53;;;2.25;;
64868;SDS011;51349;52.424;10.840;2023-09-18T18:53:36;4.93;;;2.25;;
64868;SDS011;51349;52.424;10.840;2023-09-18T18:58:40;2.83;;;2.60;;
64868;SDS011;51349;52.424;10.840;2023-09-18T19:03:41;3.20;;;2.47;;
64868;SDS011;51349;52.424;10.840;2023-09-18T19:08:43;13.25;;;2.45;;
64868;SDS011;51349;52.424;10.840;2023-09-18T19:13:44;13.68;;;2.90;;
64868;SDS011;51349;52.424;10.840;2023-09-18T19:18:47;3.22;;;2.20;;
64868;SDS011;51349;52.424;10.840;2023-09-18T19:23:48;3.03;;;1.95;;
64868;SDS011;51349;52.424;10.840;2023-09-18T19:28:49;2.30;;;2.10;;
64868;SDS011;51349;52.424;10.840;2023-09-18T19:33:50;3.10;;;2.45;;
64868;SDS011;51349;52.424;10.840;2023-09-18T19:38:51;2.63;;;2.42;;
64868;SDS011;51349;52.424;10.840;2023-09-18T19:43:53;6.93;;;2.13;;
64868;SDS011;51349;52.424;10.840;2023-09-18T19:48:54;3.00;;;2.38;;
64868;SDS011;51349;52.424;10.840;2023-09-18T19:53:55;3.15;;;2.50;;
64868;SDS011;51349;52.424;10.840;2023-09-18T19:58:55;2.65;;;2.00;;
64868;SDS011;51349;52.424;10.840;2023-09-18T20:03:56;3.60;;;2.25;;
64868;SDS011;51349;52.424;10.840;2023-09-18T20:08:57;2.75;;;2.38;;
64868;SDS011;51349;52.424;10.840;2023-09-18T20:13:58;2.50;;;2.10;;
64868;SDS011;51349;52.424;10.840;2023-09-18T20:18:58;2.47;;;2.15;;
64868;SDS011;51349;52.424;10.840;2023-09-18T20:23:59;3.33;;;2.40;;
64868;SDS011;51349;52.424;10.840;2023-09-18T20:29:00;5.43;;;2.47;;
64868;SDS011;51349;52.424;10.840;2023-09-18T20:34:01;2.60;;;2.40;;
64868;SDS011;51349;52.424;10.840;2023-09-18T20:39:01;2.30;;;2.20;;
64868;SDS011;51349;52.424;10.840;2023-09-18T20:44:04;2.60;;;2.40;;
64868;SDS011;51349;52.424;10.840;2023-09-18T20:49:04;4.25;;;2.55;;
64868;SDS011;51349;52.424;10.840;2023-09-18T20:54:05;6.13;;;2.63;;
64868;SDS011;51349;52.424;10.840;2023-09-18T20:59:06;5.13;;;2.08;;
64868;SDS011;51349;52.424;10.840;2023-09-18T21:04:09;3.08;;;2.65;;
64868;SDS011;51349;52.424;10.840;2023-09-18T21:09:09;3.95;;;2.40;;
64868;SDS011;51349;52.424;10.840;2023-09-18T21:14:11;2.20;;;2.00;;
64868;SDS011;51349;52.424;10.840;2023-09-18T21:19:13;4.57;;;2.42;;
64868;SDS011;51349;52.424;10.840;2023-09-18T21:24:13;2.67;;;2.10;;
64868;SDS011;51349;52.424;10.840;2023-09-18T21:29:14;2.45;;;2.25;;
64868;SDS011;51349;52.424;10.840;2023-09-18T21:34:14;2.50;;;2.30;;
64868;SDS011;51349;52.424;10.840;2023-09-18T21:39:15;2.92;;;2.45;;
64868;SDS011;51349;52.424;10.840;2023-09-18T21:44:16;2.13;;;2.03;;
64868;SDS011;51349;52.424;10.840;2023-09-18T21:49:17;5.05;;;2.45;;
64868;SDS011;51349;52.424;10.840;2023-09-18T21:54:17;2.38;;;2.05;;
64868;SDS011;51349;52.424;10.840;2023-09-18T21:59:18;2.10;;;2.00;;
64868;SDS011;51349;52.424;10.840;2023-09-18T22:04:19;3.90;;;2.28;;
64868;SDS011;51349;52.424;10.840;2023-09-18T22:09:21;3.28;;;2.40;;
64868;SDS011;51349;52.424;10.840;2023-09-18T22:14:25;2.30;;;2.20;;
64868;SDS011;51349;52.424;10.840;2023-09-18T22:19:25;4.45;;;2.30;;
64868;SDS011;51349;52.424;10.840;2023-09-18T22:24:26;2.58;;;2.10;;
64868;SDS011;51349;52.424;10.840;2023-09-18T22:29:27;2.17;;;1.80;;
64868;SDS011;51349;52.424;10.840;2023-09-18T22:34:27;3.35;;;1.30;;
64868;SDS011;51349;52.424;10.840;2023-09-18T22:56:08;1.00;;;0.90;;
64868;SDS011;51349;52.424;10.840;2023-09-18T23:01:09;1.42;;;0.90;;
64868;SDS011;51349;52.424;10.840;2023-09-18T23:06:10;0.90;;;0.90;;
64868;SDS011;51349;52.424;10.840;2023-09-18T23:11:11;1.00;;;0.90;;
64868;SDS011;51349;52.424;10.840;2023-09-18T23:16:12;0.93;;;0.93;;
64868;SDS011;51349;52.424;10.840;2023-09-18T23:21:13;1.00;;;0.82;;
64868;SDS011;51349;52.424;10.840;2023-09-18T23:26:15;0.70;;;0.70;;
64868;SDS011;51349;52.424;10.840;2023-09-18T23:31:17;1.42;;;1.00;;
64868;SDS011;51349;52.424;10.840;2023-09-18T23:36:17;1.05;;;0.82;;
64868;SDS011;51349;52.424;10.840;2023-09-18T23:41:18;1.75;;;0.63;;
64868;SDS011;51349;52.424;10.840;2023-09-18T23:46:21;0.60;;;0.60;;
64868;SDS011;51349;52.424;10.840;2023-09-18T23:51:25;1.38;;;0.80;;
64868;SDS011;51349;52.424;10.840;2023-09-18T23:56:27;1.25;;;0.80;;
